createdAt,value
2023-03-13T00:01:46.260Z,6.20
2023-03-13T00:04:14.823Z,6.57
2023-03-13T00:06:43.102Z,6.28
2023-03-13T00:09:14.646Z,6.50
2023-03-13T00:11:43.639Z,7.63
2023-03-13T00:14:11.657Z,6.13
2023-03-13T00:16:39.884Z,5.60
2023-03-13T00:19:08.546Z,6.32
2023-03-13T00:21:41.323Z,6.00
2023-03-13T00:24:12.522Z,6.32
2023-03-13T00:26:40.392Z,5.68
2023-03-13T00:29:08.024Z,5.32
2023-03-13T00:31:35.694Z,5.70
2023-03-13T00:34:04.478Z,6.15
2023-03-13T00:36:36.333Z,6.13
2023-03-13T00:39:06.331Z,6.00
2023-03-13T00:41:37.676Z,5.53
2023-03-13T00:44:06.790Z,6.22
2023-03-13T00:46:34.572Z,5.72
2023-03-13T00:49:03.310Z,6.43
2023-03-13T00:51:31.592Z,6.00
2023-03-13T00:54:00.968Z,6.47
2023-03-13T00:56:29.399Z,6.30
2023-03-13T00:58:57.175Z,6.45
2023-03-13T01:01:28.908Z,6.47
2023-03-13T01:04:04.773Z,6.43
2023-03-13T01:09:04.898Z,6.20
2023-03-13T01:11:36.715Z,5.72
2023-03-13T01:14:24.785Z,6.25
2023-03-13T01:16:54.633Z,5.45
2023-03-13T01:19:22.277Z,5.43
2023-03-13T01:21:49.954Z,5.70
2023-03-13T01:24:19.256Z,5.60
2023-03-13T01:26:47.157Z,4.78
2023-03-13T01:29:16.657Z,5.18
2023-03-13T01:31:44.572Z,5.05
2023-03-13T01:34:12.230Z,5.05
2023-03-13T01:36:39.990Z,4.95
2023-03-13T01:39:08.085Z,5.03
2023-03-13T01:41:38.234Z,5.38
2023-03-13T01:44:06.080Z,4.97
2023-03-13T01:46:36.687Z,5.05
2023-03-13T01:49:35.343Z,4.30
2023-03-13T01:52:38.377Z,4.57
2023-03-13T01:55:18.252Z,5.00
2023-03-13T01:57:53.118Z,4.38
2023-03-13T02:00:31.828Z,4.53
2023-03-13T02:03:06.972Z,4.93
2023-03-13T02:05:36.173Z,3.88
2023-03-13T02:08:09.110Z,4.18
2023-03-13T02:10:45.013Z,3.85
2023-03-13T02:15:43.308Z,4.00
2023-03-13T02:18:11.851Z,4.57
2023-03-13T02:20:40.839Z,4.35
2023-03-13T02:23:20.499Z,4.10
2023-03-13T02:25:55.085Z,4.93
2023-03-13T02:28:39.363Z,4.95
2023-03-13T02:31:11.437Z,5.07
2023-03-13T02:33:44.301Z,5.60
2023-03-13T02:36:17.380Z,5.32
2023-03-13T02:38:55.562Z,5.82
2023-03-13T02:41:25.753Z,6.03
2023-03-13T02:43:55.517Z,6.40
2023-03-13T02:46:24.914Z,5.72
2023-03-13T02:48:57.391Z,6.55
2023-03-13T02:51:45.259Z,6.72
2023-03-13T02:54:23.478Z,5.57
2023-03-13T02:56:58.039Z,6.07
2023-03-13T02:59:26.578Z,5.45
2023-03-13T03:01:54.422Z,6.22
2023-03-13T03:04:25.514Z,5.32
2023-03-13T03:06:57.707Z,4.80
2023-03-13T03:09:26.035Z,5.47
2023-03-13T03:11:58.368Z,5.57
2023-03-13T03:14:28.576Z,5.40
2023-03-13T03:16:56.842Z,4.97
2023-03-13T03:19:26.215Z,4.43
2023-03-13T03:21:53.976Z,4.55
2023-03-13T03:24:21.738Z,4.75
2023-03-13T03:26:49.431Z,4.80
2023-03-13T03:29:24.744Z,5.07
2023-03-13T03:31:55.005Z,4.38
2023-03-13T03:34:24.310Z,4.65
2023-03-13T03:36:53.020Z,4.72
2023-03-13T03:39:21.041Z,4.82
2023-03-13T03:41:48.943Z,4.68
2023-03-13T03:44:16.642Z,4.65
2023-03-13T03:46:59.304Z,4.22
2023-03-13T03:49:29.804Z,4.53
2023-03-13T03:51:57.584Z,4.63
2023-03-13T03:54:31.083Z,4.20
2023-03-13T03:56:59.957Z,3.92
2023-03-13T03:59:27.752Z,4.20
2023-03-13T04:02:07.814Z,3.38
2023-03-13T04:04:36.182Z,4.72
2023-03-13T04:07:19.508Z,4.07
2023-03-13T04:09:47.175Z,4.25
2023-03-13T04:12:23.106Z,3.75
2023-03-13T04:14:53.528Z,4.18
2023-03-13T04:17:22.264Z,3.30
2023-03-13T04:19:50.014Z,3.35
2023-03-13T04:22:17.691Z,3.72
2023-03-13T04:24:53.079Z,3.88
2023-03-13T04:27:23.166Z,3.38
2023-03-13T04:29:53.099Z,3.50
2023-03-13T04:32:39.231Z,3.42
2023-03-13T04:35:22.456Z,3.78
2023-03-13T04:38:13.486Z,3.10
2023-03-13T04:41:13.817Z,3.33
2023-03-13T04:43:57.953Z,3.05
2023-03-13T04:46:49.423Z,3.00
2023-03-13T04:49:43.219Z,3.42
2023-03-13T04:52:18.583Z,3.05
2023-03-13T04:55:06.901Z,3.17
2023-03-13T04:57:40.369Z,3.20
2023-03-13T05:00:26.850Z,3.03
2023-03-13T05:03:24.157Z,3.63
2023-03-13T05:06:12.886Z,3.20
2023-03-13T05:08:59.055Z,4.43
2023-03-13T05:11:45.097Z,3.05
2023-03-13T05:14:48.094Z,3.90
2023-03-13T05:17:34.592Z,3.85
2023-03-13T05:20:31.667Z,3.88
2023-03-13T05:23:19.635Z,3.22
2023-03-13T05:25:56.948Z,3.67
2023-03-13T05:28:44.850Z,4.63
2023-03-13T05:31:15.593Z,3.70
2023-03-13T05:34:02.879Z,3.67
2023-03-13T05:36:42.502Z,3.28
2023-03-13T05:42:14.640Z,3.35
2023-03-13T05:45:02.542Z,2.85
2023-03-13T05:50:33.838Z,3.63
2023-03-13T05:53:30.831Z,3.17
2023-03-13T05:56:14.596Z,3.20
2023-03-13T05:59:15.033Z,3.83
2023-03-13T06:02:17.956Z,3.35
2023-03-13T06:04:48.401Z,3.45
2023-03-13T06:07:16.166Z,3.33
2023-03-13T06:09:44.018Z,3.28
2023-03-13T06:12:12.747Z,3.25
2023-03-13T06:14:40.674Z,3.70
2023-03-13T06:17:10.923Z,3.67
2023-03-13T06:19:38.679Z,3.30
2023-03-13T06:22:06.320Z,3.33
2023-03-13T06:24:34.110Z,3.40
2023-03-13T06:27:01.820Z,3.53
2023-03-13T06:29:29.517Z,3.13
2023-03-13T06:31:57.503Z,3.30
2023-03-13T06:34:25.341Z,2.97
2023-03-13T06:36:53.032Z,3.30
2023-03-13T06:39:20.640Z,3.25
2023-03-13T06:41:48.494Z,2.70
2023-03-13T06:44:16.192Z,3.08
2023-03-13T06:46:43.979Z,3.30
2023-03-13T06:49:11.620Z,3.63
2023-03-13T06:51:39.394Z,3.20
2023-03-13T06:54:07.069Z,3.15
2023-03-13T06:56:34.862Z,3.17
2023-03-13T06:59:02.861Z,2.67
2023-03-13T07:01:30.684Z,2.88
2023-03-13T07:03:58.519Z,2.83
2023-03-13T07:06:27.112Z,2.72
2023-03-13T07:08:54.811Z,3.10
2023-03-13T07:11:22.511Z,3.03
2023-03-13T07:13:50.141Z,3.00
2023-03-13T07:16:18.234Z,2.78
2023-03-13T07:18:45.919Z,2.33
2023-03-13T07:21:14.460Z,2.83
2023-03-13T07:23:42.208Z,2.45
2023-03-13T07:26:16.027Z,2.53
2023-03-13T07:28:44.263Z,2.50
2023-03-13T07:31:15.812Z,1.80
2023-03-13T07:33:44.910Z,1.95
2023-03-13T07:36:15.573Z,2.00
2023-03-13T07:38:45.955Z,2.03
2023-03-13T07:41:13.838Z,1.88
2023-03-13T07:43:41.745Z,1.58
2023-03-13T07:46:14.207Z,1.90
2023-03-13T07:48:43.437Z,1.45
2023-03-13T07:51:16.445Z,1.70
2023-03-13T07:53:47.723Z,1.52
2023-03-13T07:56:18.744Z,1.55
2023-03-13T07:58:47.298Z,1.75
2023-03-13T08:01:23.591Z,1.42
2023-03-13T08:03:55.875Z,1.73
2023-03-13T08:06:26.204Z,1.60
2023-03-13T08:08:58.374Z,1.52
2023-03-13T08:11:27.894Z,1.83
2023-03-13T08:13:57.102Z,1.45
2023-03-13T08:16:32.014Z,1.50
2023-03-13T08:19:01.125Z,1.52
2023-03-13T08:21:32.001Z,1.48
2023-03-13T08:24:05.905Z,1.30
2023-03-13T08:26:36.769Z,1.67
2023-03-13T08:29:09.617Z,1.80
2023-03-13T08:31:47.618Z,2.17
2023-03-13T08:34:18.003Z,2.25
2023-03-13T08:36:46.635Z,1.92
2023-03-13T08:39:17.927Z,1.90
2023-03-13T08:41:45.708Z,2.25
2023-03-13T08:44:20.251Z,1.92
2023-03-13T08:46:49.360Z,2.75
2023-03-13T08:49:17.790Z,2.60
2023-03-13T08:51:45.589Z,2.40
2023-03-13T08:54:13.299Z,2.20
2023-03-13T08:56:43.518Z,2.13
2023-03-13T08:59:11.248Z,1.98
2023-03-13T09:01:38.897Z,1.80
2023-03-13T09:04:07.685Z,1.48
2023-03-13T09:06:37.740Z,1.50
2023-03-13T09:09:07.707Z,1.85
2023-03-13T09:11:37.723Z,1.60
2023-03-13T09:14:07.654Z,1.50
2023-03-13T09:16:36.438Z,1.40
2023-03-13T09:19:04.444Z,1.98
2023-03-13T09:21:34.961Z,1.35
2023-03-13T09:24:03.185Z,1.52
2023-03-13T09:26:31.452Z,1.27
2023-03-13T09:28:59.412Z,1.30
2023-03-13T09:31:32.405Z,1.33
2023-03-13T09:34:01.222Z,1.00
2023-03-13T09:36:30.211Z,1.35
2023-03-13T09:39:00.001Z,1.38
2023-03-13T09:41:40.695Z,1.20
2023-03-13T09:44:45.533Z,1.20
2023-03-13T09:47:24.427Z,1.23
2023-03-13T09:50:03.009Z,1.30
2023-03-13T09:52:41.143Z,1.10
2023-03-13T09:55:26.485Z,0.90
2023-03-13T09:58:12.228Z,1.38
2023-03-13T10:00:42.016Z,1.13
2023-03-13T10:03:21.826Z,1.60
2023-03-13T10:05:53.626Z,1.25
2023-03-13T10:08:27.982Z,1.40
2023-03-13T10:11:26.953Z,1.33
2023-03-13T10:14:17.173Z,1.33
2023-03-13T10:17:20.091Z,1.30
2023-03-13T10:19:56.209Z,1.08
2023-03-13T10:22:30.011Z,1.45
2023-03-13T10:25:35.450Z,1.48
2023-03-13T10:28:03.597Z,1.33
2023-03-13T10:30:35.482Z,1.65
2023-03-13T10:33:11.944Z,1.33
2023-03-13T10:35:42.736Z,1.90
2023-03-13T10:38:20.284Z,1.77
2023-03-13T10:41:30.960Z,1.30
2023-03-13T10:44:08.350Z,1.88
2023-03-13T10:46:42.845Z,1.50
2023-03-13T10:49:23.761Z,1.42
2023-03-13T10:51:58.408Z,1.63
2023-03-13T10:54:31.396Z,2.10
2023-03-13T10:57:35.567Z,1.70
2023-03-13T11:00:28.154Z,1.58
2023-03-13T11:02:56.463Z,1.83
2023-03-13T11:05:28.421Z,2.00
2023-03-13T11:07:56.656Z,1.95
2023-03-13T11:10:29.910Z,2.83
2023-03-13T11:12:59.354Z,2.17
2023-03-13T11:15:42.143Z,1.80
2023-03-13T11:18:19.095Z,2.03
2023-03-13T11:20:47.367Z,1.83
2023-03-13T11:23:37.470Z,1.65
2023-03-13T11:26:35.893Z,1.50
2023-03-13T11:29:47.784Z,1.70
2023-03-13T11:32:32.165Z,1.92
2023-03-13T11:35:05.049Z,1.63
2023-03-13T11:37:35.747Z,1.70
2023-03-13T11:40:21.416Z,1.73
2023-03-13T11:43:24.450Z,2.15
2023-03-13T11:46:11.473Z,1.98
2023-03-13T11:49:22.323Z,2.30
2023-03-13T11:52:17.878Z,3.20
2023-03-13T11:55:14.939Z,2.35
2023-03-13T11:58:46.899Z,2.90
2023-03-13T12:01:26.763Z,3.47
2023-03-13T12:04:13.355Z,3.05
2023-03-13T12:06:58.020Z,2.83
2023-03-13T12:09:50.069Z,2.20
2023-03-13T12:12:59.268Z,2.58
2023-03-13T12:15:33.138Z,2.53
2023-03-13T12:18:18.371Z,2.78
2023-03-13T12:21:07.305Z,3.17
2023-03-13T12:23:56.405Z,2.63
2023-03-13T12:26:40.423Z,2.72
2023-03-13T12:29:38.656Z,3.33
2023-03-13T12:32:50.202Z,3.53
2023-03-13T12:35:37.926Z,3.17
2023-03-13T12:38:20.629Z,3.05
2023-03-13T12:41:27.474Z,2.90
2023-03-13T12:44:08.149Z,3.22
2023-03-13T12:46:48.031Z,2.63
2023-03-13T12:49:43.514Z,3.30
2023-03-13T12:52:40.353Z,2.58
2023-03-13T12:55:56.490Z,3.20
2023-03-13T12:58:56.046Z,3.22
2023-03-13T13:01:24.943Z,3.42
2023-03-13T13:04:20.122Z,3.67
2023-03-13T13:07:07.906Z,3.45
2023-03-13T13:09:41.725Z,2.70
2023-03-13T13:12:24.135Z,2.28
2023-03-13T13:14:51.942Z,3.05
2023-03-13T13:17:26.592Z,2.90
2023-03-13T13:19:56.264Z,3.20
2023-03-13T13:22:38.926Z,3.50
2023-03-13T13:25:33.825Z,3.40
2023-03-13T13:28:21.926Z,3.25
2023-03-13T13:30:53.920Z,3.35
2023-03-13T13:33:30.553Z,3.92
2023-03-13T13:36:10.645Z,3.10
2023-03-13T13:38:42.425Z,3.08
2023-03-13T13:41:10.118Z,3.00
2023-03-13T13:43:44.083Z,2.92
2023-03-13T13:46:35.049Z,2.45
2023-03-13T13:49:05.853Z,3.15
2023-03-13T13:51:38.623Z,2.85
2023-03-13T13:54:33.829Z,2.85
2023-03-13T13:57:09.394Z,3.28
2023-03-13T14:02:10.454Z,3.00
2023-03-13T14:04:53.269Z,2.97
2023-03-13T14:07:52.103Z,2.63
2023-03-13T14:10:40.783Z,3.20
2023-03-13T14:13:21.264Z,3.35
2023-03-13T14:15:53.040Z,3.05
2023-03-13T14:18:30.967Z,2.95
2023-03-13T14:21:15.076Z,3.63
2023-03-13T14:23:47.079Z,2.90
2023-03-13T14:26:22.451Z,3.30
2023-03-13T14:28:57.435Z,2.70
2023-03-13T14:31:38.338Z,3.25
2023-03-13T14:34:09.951Z,3.20
2023-03-13T14:37:14.880Z,3.00
2023-03-13T14:39:46.119Z,3.15
2023-03-13T14:42:17.420Z,3.95
2023-03-13T14:44:49.213Z,3.92
2023-03-13T14:47:16.804Z,3.67
2023-03-13T14:49:47.048Z,3.28
2023-03-13T14:52:24.382Z,3.53
2023-03-13T14:55:04.437Z,3.63
2023-03-13T14:57:34.062Z,3.65
2023-03-13T15:00:37.397Z,3.70
2023-03-13T15:03:17.052Z,3.33
2023-03-13T15:06:11.423Z,3.45
2023-03-13T15:08:43.447Z,3.15
2023-03-13T15:11:33.913Z,2.75
2023-03-13T15:14:02.606Z,3.58
2023-03-13T15:16:30.326Z,4.13
2023-03-13T15:18:58.050Z,3.60
2023-03-13T15:21:31.472Z,2.95
2023-03-13T15:24:03.712Z,2.83
2023-03-13T15:26:31.448Z,2.88
2023-03-13T15:28:59.063Z,3.70
2023-03-13T15:31:29.298Z,3.00
2023-03-13T15:34:00.391Z,3.25
2023-03-13T15:36:30.405Z,3.13
2023-03-13T15:38:58.346Z,3.38
2023-03-13T15:41:26.400Z,3.65
2023-03-13T15:43:55.493Z,3.15
2023-03-13T15:46:25.752Z,3.35
2023-03-13T15:48:54.014Z,2.72
2023-03-13T15:51:21.715Z,3.97
2023-03-13T15:53:49.419Z,3.47
2023-03-13T15:56:22.752Z,3.15
2023-03-13T15:58:51.449Z,3.55
2023-03-13T16:01:19.653Z,3.47
2023-03-13T16:03:47.411Z,3.00
2023-03-13T16:06:28.284Z,3.42
2023-03-13T16:08:56.036Z,4.00
2023-03-13T16:11:24.986Z,3.92
2023-03-13T16:13:53.353Z,3.63
2023-03-13T16:16:23.623Z,3.63
2023-03-13T16:18:53.033Z,3.28
2023-03-13T16:21:25.863Z,3.20
2023-03-13T16:23:54.012Z,3.33
2023-03-13T16:26:26.168Z,3.70
2023-03-13T16:28:55.177Z,3.47
2023-03-13T16:31:26.216Z,3.67
2023-03-13T16:33:55.405Z,3.33
2023-03-13T16:36:31.125Z,3.72
2023-03-13T16:41:32.930Z,3.53
2023-03-13T16:44:01.242Z,3.45
2023-03-13T16:46:46.036Z,3.28
2023-03-13T16:49:17.877Z,3.65
2023-03-13T16:51:46.864Z,3.85
2023-03-13T16:54:14.542Z,3.78
2023-03-13T16:56:44.011Z,3.08
2023-03-13T16:59:16.485Z,3.97
2023-03-13T17:01:47.051Z,3.42
2023-03-13T17:04:14.858Z,2.83
2023-03-13T17:06:44.796Z,4.00
2023-03-13T17:09:16.890Z,3.92
2023-03-13T17:11:45.081Z,3.17
2023-03-13T17:14:13.564Z,3.97
2023-03-13T17:16:45.535Z,4.07
2023-03-13T17:19:15.059Z,4.45
2023-03-13T17:21:42.984Z,3.85
2023-03-13T17:24:10.638Z,3.13
2023-03-13T17:26:40.576Z,3.97
2023-03-13T17:29:14.897Z,3.38
2023-03-13T17:31:42.596Z,4.55
2023-03-13T17:34:10.315Z,4.20
2023-03-13T17:36:38.465Z,3.70
2023-03-13T17:39:08.897Z,4.22
2023-03-13T17:41:37.099Z,3.75
2023-03-13T17:44:07.722Z,3.70
2023-03-13T17:46:44.561Z,3.28
2023-03-13T17:49:13.941Z,3.42
2023-03-13T17:51:42.313Z,3.75
2023-03-13T17:54:10.240Z,3.47
2023-03-13T17:56:40.321Z,3.75
2023-03-13T17:59:15.531Z,4.50
2023-03-13T18:01:43.729Z,3.88
2023-03-13T18:04:12.182Z,3.50
2023-03-13T18:06:44.583Z,3.97
2023-03-13T18:09:18.114Z,3.83
2023-03-13T18:11:46.026Z,4.25
2023-03-13T18:14:14.108Z,3.80
2023-03-13T18:16:48.068Z,3.65
2023-03-13T18:19:23.888Z,3.75
2023-03-13T18:24:21.777Z,3.92
2023-03-13T18:26:51.247Z,3.70
2023-03-13T18:29:29.046Z,3.88
2023-03-13T18:32:00.551Z,3.78
2023-03-13T18:34:28.795Z,4.50
2023-03-13T18:36:57.136Z,4.65
2023-03-13T18:39:24.732Z,5.20
2023-03-13T18:41:52.748Z,3.95
2023-03-13T18:44:21.100Z,3.95
2023-03-13T18:46:51.311Z,3.10
2023-03-13T18:49:21.844Z,4.88
2023-03-13T18:51:52.234Z,16.58
2023-03-13T18:54:20.161Z,15.98
2023-03-13T18:56:47.960Z,11.95
2023-03-13T18:59:21.043Z,12.05
2023-03-13T19:01:49.909Z,4.30
2023-03-13T19:04:19.720Z,4.80
2023-03-13T19:06:48.277Z,6.05
2023-03-13T19:12:07.404Z,5.00
2023-03-13T19:14:35.107Z,3.80
2023-03-13T19:17:03.992Z,5.53
2023-03-13T19:19:32.085Z,5.43
2023-03-13T19:22:00.979Z,10.48
2023-03-13T19:24:29.278Z,5.50
2023-03-13T19:26:59.969Z,5.70
2023-03-13T19:29:29.071Z,4.20
2023-03-13T19:31:56.898Z,4.32
2023-03-13T19:34:24.756Z,7.07
2023-03-13T19:36:53.503Z,8.05
2023-03-13T19:39:24.315Z,7.57
2023-03-13T19:41:53.595Z,7.18
2023-03-13T19:44:22.264Z,13.88
2023-03-13T19:46:50.265Z,6.80
2023-03-13T19:49:20.601Z,4.85
2023-03-13T19:51:48.850Z,5.43
2023-03-13T19:54:16.663Z,5.45
2023-03-13T19:56:47.696Z,6.90
2023-03-13T19:59:29.099Z,6.75
2023-03-13T20:01:56.978Z,5.78
2023-03-13T20:04:25.114Z,5.00
2023-03-13T20:06:52.801Z,4.95
2023-03-13T20:09:21.049Z,4.90
2023-03-13T20:11:49.053Z,5.30
2023-03-13T20:14:16.885Z,4.43
2023-03-13T20:16:47.436Z,5.07
2023-03-13T20:19:16.376Z,6.15
2023-03-13T20:21:44.346Z,6.47
2023-03-13T20:24:11.942Z,5.00
2023-03-13T20:26:40.389Z,6.43
2023-03-13T20:29:08.030Z,5.50
2023-03-13T20:31:36.180Z,6.97
2023-03-13T20:34:04.279Z,5.28
2023-03-13T20:36:31.883Z,6.10
2023-03-13T20:38:59.514Z,6.15
2023-03-13T20:41:31.230Z,6.28
2023-03-13T20:43:59.080Z,5.40
2023-03-13T20:46:27.043Z,4.75
2023-03-13T20:48:55.803Z,5.28
2023-03-13T20:51:24.423Z,4.55
2023-03-13T20:53:52.014Z,5.57
2023-03-13T20:56:19.703Z,4.75
2023-03-13T20:58:47.332Z,4.30
2023-03-13T21:01:17.095Z,4.72
2023-03-13T21:03:46.401Z,4.22
2023-03-13T21:06:17.281Z,4.63
2023-03-13T21:08:46.982Z,5.15
2023-03-13T21:11:18.195Z,5.05
2023-03-13T21:13:46.709Z,4.63
2023-03-13T21:16:15.083Z,4.90
2023-03-13T21:18:43.143Z,4.95
2023-03-13T21:21:18.549Z,4.35
2023-03-13T21:23:47.101Z,4.50
2023-03-13T21:26:15.886Z,3.47
2023-03-13T21:28:43.562Z,3.25
2023-03-13T21:31:19.515Z,4.15
2023-03-13T21:33:48.882Z,4.82
2023-03-13T21:36:20.730Z,2.97
2023-03-13T21:38:50.238Z,3.47
2023-03-13T21:41:21.361Z,3.00
2023-03-13T21:43:49.129Z,1.90
2023-03-13T21:46:18.284Z,1.77
2023-03-13T21:51:18.984Z,1.65
2023-03-13T21:53:46.691Z,1.90
2023-03-13T21:56:15.844Z,1.52
2023-03-13T21:58:45.563Z,1.95
2023-03-13T22:01:15.194Z,1.60
2023-03-13T22:03:43.168Z,1.20
2023-03-13T22:06:20.252Z,1.50
2023-03-13T22:08:49.272Z,1.13
2023-03-13T22:11:17.747Z,2.42
2023-03-13T22:13:45.469Z,1.20
2023-03-13T22:16:13.166Z,1.98
2023-03-13T22:18:42.260Z,1.10
2023-03-13T22:21:10.304Z,1.35
2023-03-13T22:23:38.136Z,1.70
2023-03-13T22:26:06.647Z,1.80
2023-03-13T22:28:34.237Z,2.13
2023-03-13T22:31:03.086Z,1.48
2023-03-13T22:33:31.083Z,2.17
2023-03-13T22:35:59.138Z,1.70
2023-03-13T22:38:27.329Z,1.45
2023-03-13T22:41:15.715Z,1.55
2023-03-13T22:43:44.117Z,1.52
2023-03-13T22:46:12.271Z,1.20
2023-03-13T22:48:40.572Z,1.10
2023-03-13T22:51:13.681Z,1.50
2023-03-13T22:53:42.542Z,1.35
2023-03-13T22:56:12.135Z,1.42
2023-03-13T22:58:41.123Z,1.25
2023-03-13T23:01:19.177Z,1.48
2023-03-13T23:03:46.992Z,0.82
2023-03-13T23:06:26.089Z,1.02
2023-03-13T23:08:54.370Z,0.95
2023-03-13T23:11:22.042Z,1.40
2023-03-13T23:13:49.750Z,1.10
2023-03-13T23:16:17.482Z,1.50
2023-03-13T23:18:45.444Z,1.10
2023-03-13T23:21:14.868Z,1.20
2023-03-13T23:23:43.436Z,1.50
2023-03-13T23:26:14.893Z,1.27
2023-03-13T23:28:43.160Z,1.13
2023-03-13T23:31:16.052Z,1.30
2023-03-13T23:33:43.821Z,1.00
2023-03-13T23:36:18.559Z,1.58
2023-03-13T23:38:50.477Z,0.93
2023-03-13T23:41:18.976Z,1.02
2023-03-13T23:43:46.774Z,1.08
2023-03-13T23:46:29.826Z,1.58
2023-03-13T23:48:59.076Z,1.30
2023-03-13T23:51:27.300Z,1.23
2023-03-13T23:53:54.971Z,1.42
2023-03-13T23:56:25.232Z,1.42
2023-03-13T23:58:54.623Z,1.35
